Etusivu
METAR-TAF:

METAR-TAF

Lentoasemat :

Siegen, Saksa

Leveyspiiri: 50-42-28N, Pituuspiiri: 008-04-59E, korkeus merenpinnasta: 602 m

Tämänhetkinen sää

Tämä raportti tehtiin 15 minuuttia sitten, kello 15.20 UTC
Tuuli 5 kn koillisesta, vaihdellen pohjoisen/koillisen ja idän välillä
Lämpötila 14°C
Kosteus 47%
Ilmanpaine 1032 hPa
Näkyvyys 10 km tai enemmän
ei pilviä alle 1500 m:ssä eikä cumulonimbus-pilviä

METAR: EDGS 211520Z 05005KT 020V080 CAVOK 14/03 Q1032

Aika: 16:35 (15:35 UTC)

Sääennuste

Tämä raportti tehtiin 1 tunti ja 35 minuuttia sitten, kello 14.00 UTC
Ennuste voimassa 21. päivästä klo 15 UTC - 21. päivään klo 24 UTC
Tuuli 4 kn koillisesta
Näkyvyys 10 km tai enemmän
ei pilviä alle 1500 m:ssä eikä cumulonimbus-pilviä

TAF: EDGS 211400Z 2115/2124 05004KT CAVOK

Säähavainnot ja -ennusteet yli 4000 lentoasemalta (METAR- ja TAF-raportit).

Käytössä olevat sääasemat on merkitty karttaan keltaisilla ja punaisilla pisteillä.

Aseta hiiri pisteen päälle nähdäksesi sääaseman nimen.

Klikkaa sitten nähdäksesi säähavainnot ja -ennusteet.

Kartan vaihtaminen: klikkaa mustalla rastilla varustettuja vihreitä pisteitä, niin voit zoomata sisään; viivalla varustettua vihreää pistettä, niin voit zoomata ulos tai vihreitä nuolia, niin pääset viereisille kartoille.


METAR-TAF: